Saint Bernice, Indiana
Current Conditions -  °F | °C
As of 9:55 AM on Friday 19 Dec 2014 (Local Time) from KPRG Reporting Station
Clear Clear  
Wind Chill: 25°   Ceiling: Unl
Heat Index: 25°   Visibility: 7mi
Dew Point: 22°   Wind: 0mph
Humidity: 88%   Direction: NA
Pressure: 30.34"   Gusts: NA
Location:  39.71°N, 87.52°W
Report Text: KPRG 191455Z AUTO 00000KT 7SM CLR M04/M05 A3034 RMK AO2 T10371054
Loading
Personal Weather Stations






























Interactive Weather Map New forecast layout! Learn more

10-Day Weather Forecast

Advertisements
Track Severe Weather on mobile